Weather forecast for Avalon this week

Current weather in Avalon

Patchy rain possible

Weather

Patchy rain possible
Cloud cover 100%

Temperature

64°F
Minimum 61°F
Maximum 64°F

Wind

18 mph
Wind gust 30 mph

Humidity

91%
Dew point 61°F
Temp Feels Precip Humidity
00:00am Patchy rain possiblePatchy rain possible 61°F 61°F 0.1 mm 86%
03:00am Patchy rain possiblePatchy rain possible 62°F 61°F 0.1 mm 89%
06:00am Light rain showerLight rain shower 64°F 62°F 0.2 mm 89%
09:00am Partly cloudyPartly cloudy 62°F 62°F 0 mm 88%
12:00pm Patchy rain possiblePatchy rain possible 63°F 63°F 0.1 mm 89%
15:00pm CloudyCloudy 63°F 63°F 0 mm 90%
18:00pm Patchy rain possiblePatchy rain possible 64°F 64°F 0.1 mm 91%
21:00pm Light rainLight rain 61°F 61°F 2.4 mm 87%
Temp Feels Precip Humidity
00:00am Patchy rain possible Patchy rain possible 61°F 61°F 2.5 mm 73%
03:00am Clear Clear 60°F 60°F 0 mm 66%
06:00am Clear Clear 56°F 51°F 0 mm 72%
09:00am Sunny Sunny 57°F 52°F 0 mm 61%
12:00pm Sunny Sunny 58°F 54°F 0 mm 57%
15:00pm Sunny Sunny 59°F 56°F 0 mm 54%
18:00pm Sunny Sunny 60°F 60°F 0 mm 50%
21:00pm Clear Clear 60°F 60°F 0 mm 49%
Temp Feels Precip Humidity
00:00am Clear Clear 59°F 56°F 0 mm 52%
03:00am Clear Clear 56°F 55°F 0 mm 52%
06:00am Clear Clear 60°F 54°F 0 mm 56%
09:00am Sunny Sunny 56°F 56°F 0 mm 55%
12:00pm Sunny Sunny 58°F 57°F 0 mm 55%
15:00pm Sunny Sunny 59°F 59°F 0 mm 52%
18:00pm Sunny Sunny 60°F 60°F 0 mm 56%
21:00pm Clear Clear 61°F 61°F 0 mm 57%
Temp Feels Precip Humidity
00:00am Clear Clear 61°F 61°F 0 mm 65%
03:00am Overcast Overcast 62°F 62°F 0 mm 70%
06:00am Overcast Overcast 60°F 62°F 0 mm 73%
09:00am Partly cloudy Partly cloudy 62°F 62°F 0 mm 77%
12:00pm Cloudy Cloudy 63°F 63°F 0 mm 79%
15:00pm Light drizzle Light drizzle 64°F 64°F 0.6 mm 86%
18:00pm Moderate rain Moderate rain 60°F 60°F 4.3 mm 90%
21:00pm Heavy rain Heavy rain 60°F 60°F 7.7 mm 96%
Temp Feels Precip Humidity
00:00am Heavy rain Heavy rain 61°F 61°F 19.3 mm 97%
03:00am Heavy rain Heavy rain 51°F 52°F 8.2 mm 91%
06:00am Heavy rain Heavy rain 55°F 51°F 14.7 mm 90%
09:00am Moderate rain Moderate rain 51°F 45°F 6.1 mm 82%
12:00pm Moderate rain at times Moderate rain at times 51°F 45°F 6.2 mm 75%
15:00pm Sunny Sunny 54°F 50°F 0 mm 57%
18:00pm Sunny Sunny 55°F 51°F 0 mm 55%
21:00pm Clear Clear 54°F 49°F 0 mm 52%
Temp Feels Precip Humidity
00:00am Clear Clear 53°F 50°F 0 mm 55%
03:00am Clear Clear 55°F 47°F 0 mm 65%
06:00am Clear Clear 56°F 48°F 0 mm 67%
09:00am Sunny Sunny 55°F 53°F 0 mm 57%
12:00pm Sunny Sunny 55°F 54°F 0 mm 56%
15:00pm Sunny Sunny 56°F 55°F 0 mm 56%
18:00pm Sunny Sunny 56°F 56°F 0 mm 57%
21:00pm Clear Clear 57°F 57°F 0 mm 59%
Temp Feels Precip Humidity
00:00am Clear Clear 57°F 56°F 0 mm 64%
03:00am Clear Clear 54°F 55°F 0 mm 69%
06:00am Clear Clear 58°F 53°F 0 mm 69%
09:00am Sunny Sunny 54°F 52°F 0 mm 69%
12:00pm Sunny Sunny 56°F 56°F 0 mm 63%
15:00pm Sunny Sunny 57°F 57°F 0 mm 62%
18:00pm Sunny Sunny 58°F 59°F 0 mm 63%
21:00pm Clear Clear 58°F 59°F 0 mm 62%

Save your favorite locations, unlock more tidal information, less advertising and more...

Sign in to Tideschart with your Facebook account in one easy click (it's FREE!)